Terminal Aerodrome Forecast
Issued by NWS

Home | Current Version | Previous Version | Text Only | Print | Product List | Glossary On
Versions: 1 2 3 4 5 6 7 8 9 10 11 12 13 14 15 16 17 18 19 20 21 22 23 24 25
000
FTUS41 KPBZ 220800 CCA
TAFAGC
TAF COR
KAGC 220809Z 2208/2306 34010KT P6SM OVC010
      TEMPO 2208/2210 OVC008
     FM221800 33010KT P6SM BKN020=

USA.gov is the U.S. government's official web portal to all federal, state and local government web resources and services.